sensor_id;sensor_type;location;lat;lon;timestamp;temperature;humidity
66708;DHT22;53622;0.000;0.000;2023-08-06T00:01:58;23.70;63.80
66708;DHT22;53622;0.000;0.000;2023-08-06T00:04:27;23.70;63.70
66708;DHT22;53622;0.000;0.000;2023-08-06T00:06:56;23.70;63.70
66708;DHT22;53622;0.000;0.000;2023-08-06T00:09:27;23.70;63.60
66708;DHT22;53622;0.000;0.000;2023-08-06T00:11:56;23.70;63.60
66708;DHT22;53622;0.000;0.000;2023-08-06T00:14:26;23.70;63.60
66708;DHT22;53622;0.000;0.000;2023-08-06T00:16:55;23.70;63.70
66708;DHT22;53622;0.000;0.000;2023-08-06T00:19:24;23.70;63.60
66708;DHT22;53622;0.000;0.000;2023-08-06T00:21:53;23.70;63.60
66708;DHT22;53622;0.000;0.000;2023-08-06T00:24:23;23.70;63.60
66708;DHT22;53622;0.000;0.000;2023-08-06T00:26:54;23.70;63.50
66708;DHT22;53622;0.000;0.000;2023-08-06T00:29:23;23.70;63.50
66708;DHT22;53622;0.000;0.000;2023-08-06T00:31:53;23.70;63.50
66708;DHT22;53622;0.000;0.000;2023-08-06T00:34:22;23.70;63.50
66708;DHT22;53622;0.000;0.000;2023-08-06T00:36:51;23.70;63.50
66708;DHT22;53622;0.000;0.000;2023-08-06T00:39:21;23.70;63.50
66708;DHT22;53622;0.000;0.000;2023-08-06T00:41:50;23.70;63.50
66708;DHT22;53622;0.000;0.000;2023-08-06T00:44:22;23.60;63.30
66708;DHT22;53622;0.000;0.000;2023-08-06T00:46:51;23.70;63.40
66708;DHT22;53622;0.000;0.000;2023-08-06T00:49:20;23.70;63.30
66708;DHT22;53622;0.000;0.000;2023-08-06T00:51:50;23.70;63.40
66708;DHT22;53622;0.000;0.000;2023-08-06T00:54:21;23.70;63.40
66708;DHT22;53622;0.000;0.000;2023-08-06T00:56:51;23.70;63.30
66708;DHT22;53622;0.000;0.000;2023-08-06T00:59:21;23.70;63.30
66708;DHT22;53622;0.000;0.000;2023-08-06T01:01:51;23.70;63.30
66708;DHT22;53622;0.000;0.000;2023-08-06T01:04:22;23.70;63.40
66708;DHT22;53622;0.000;0.000;2023-08-06T01:07:00;23.70;63.30
66708;DHT22;53622;0.000;0.000;2023-08-06T01:09:37;23.70;63.40
66708;DHT22;53622;0.000;0.000;2023-08-06T01:12:14;23.70;63.40
66708;DHT22;53622;0.000;0.000;2023-08-06T01:14:53;23.60;63.30
66708;DHT22;53622;0.000;0.000;2023-08-06T01:17:26;23.60;63.30
66708;DHT22;53622;0.000;0.000;2023-08-06T01:19:57;23.60;63.30
66708;DHT22;53622;0.000;0.000;2023-08-06T01:22:27;23.70;63.30
66708;DHT22;53622;0.000;0.000;2023-08-06T01:24:57;23.60;63.20
66708;DHT22;53622;0.000;0.000;2023-08-06T01:27:35;23.60;63.10
66708;DHT22;53622;0.000;0.000;2023-08-06T01:30:10;23.70;63.20
66708;DHT22;53622;0.000;0.000;2023-08-06T01:32:44;23.60;63.10
66708;DHT22;53622;0.000;0.000;2023-08-06T01:35:16;23.60;63.10
66708;DHT22;53622;0.000;0.000;2023-08-06T01:37:48;23.60;63.10
66708;DHT22;53622;0.000;0.000;2023-08-06T01:40:17;23.70;63.10
66708;DHT22;53622;0.000;0.000;2023-08-06T01:42:47;23.60;62.90
66708;DHT22;53622;0.000;0.000;2023-08-06T01:45:16;23.60;63.00
66708;DHT22;53622;0.000;0.000;2023-08-06T01:47:45;23.60;63.00
66708;DHT22;53622;0.000;0.000;2023-08-06T01:50:14;23.60;62.90
66708;DHT22;53622;0.000;0.000;2023-08-06T01:52:45;23.60;62.90
66708;DHT22;53622;0.000;0.000;2023-08-06T01:55:16;23.60;62.90
66708;DHT22;53622;0.000;0.000;2023-08-06T01:57:45;23.60;62.80
66708;DHT22;53622;0.000;0.000;2023-08-06T02:00:15;23.60;62.80
66708;DHT22;53622;0.000;0.000;2023-08-06T02:02:44;23.60;62.90
66708;DHT22;53622;0.000;0.000;2023-08-06T02:05:13;23.60;62.80
66708;DHT22;53622;0.000;0.000;2023-08-06T02:07:43;23.60;62.80
66708;DHT22;53622;0.000;0.000;2023-08-06T02:10:12;23.60;62.80
66708;DHT22;53622;0.000;0.000;2023-08-06T02:12:43;23.60;62.80
66708;DHT22;53622;0.000;0.000;2023-08-06T02:15:12;23.60;62.80
66708;DHT22;53622;0.000;0.000;2023-08-06T02:17:41;23.60;62.80
66708;DHT22;53622;0.000;0.000;2023-08-06T02:20:11;23.60;62.80
66708;DHT22;53622;0.000;0.000;2023-08-06T02:22:40;23.60;62.80
66708;DHT22;53622;0.000;0.000;2023-08-06T02:25:09;23.60;62.80
66708;DHT22;53622;0.000;0.000;2023-08-06T02:27:39;23.60;62.80
66708;DHT22;53622;0.000;0.000;2023-08-06T02:30:09;23.60;62.80
66708;DHT22;53622;0.000;0.000;2023-08-06T02:32:39;23.60;62.80
66708;DHT22;53622;0.000;0.000;2023-08-06T02:35:08;23.60;62.80
66708;DHT22;53622;0.000;0.000;2023-08-06T02:37:38;23.60;62.80
66708;DHT22;53622;0.000;0.000;2023-08-06T02:40:08;23.60;62.80
66708;DHT22;53622;0.000;0.000;2023-08-06T02:42:38;23.60;62.80
66708;DHT22;53622;0.000;0.000;2023-08-06T02:45:09;23.60;62.80
66708;DHT22;53622;0.000;0.000;2023-08-06T02:47:39;23.60;62.70
66708;DHT22;53622;0.000;0.000;2023-08-06T02:50:09;23.60;62.80
66708;DHT22;53622;0.000;0.000;2023-08-06T02:52:39;23.60;62.80
66708;DHT22;53622;0.000;0.000;2023-08-06T02:55:09;23.60;62.70
66708;DHT22;53622;0.000;0.000;2023-08-06T02:57:43;23.60;62.70
66708;DHT22;53622;0.000;0.000;2023-08-06T03:00:14;23.60;62.70
66708;DHT22;53622;0.000;0.000;2023-08-06T03:02:43;23.60;62.70
66708;DHT22;53622;0.000;0.000;2023-08-06T03:05:24;23.60;62.70
66708;DHT22;53622;0.000;0.000;2023-08-06T03:07:53;23.60;62.70
66708;DHT22;53622;0.000;0.000;2023-08-06T03:10:26;23.50;62.60
66708;DHT22;53622;0.000;0.000;2023-08-06T03:12:58;23.50;62.60
66708;DHT22;53622;0.000;0.000;2023-08-06T03:15:30;23.50;62.60
66708;DHT22;53622;0.000;0.000;2023-08-06T03:17:59;23.60;62.70
66708;DHT22;53622;0.000;0.000;2023-08-06T03:20:28;23.50;62.60
66708;DHT22;53622;0.000;0.000;2023-08-06T03:22:58;23.60;62.60
66708;DHT22;53622;0.000;0.000;2023-08-06T03:25:29;23.50;62.70
66708;DHT22;53622;0.000;0.000;2023-08-06T03:27:59;23.50;62.80
66708;DHT22;53622;0.000;0.000;2023-08-06T03:30:30;23.50;62.80
66708;DHT22;53622;0.000;0.000;2023-08-06T03:32:59;23.50;62.80
66708;DHT22;53622;0.000;0.000;2023-08-06T03:35:29;23.50;62.90
66708;DHT22;53622;0.000;0.000;2023-08-06T03:38:00;23.50;63.00
66708;DHT22;53622;0.000;0.000;2023-08-06T03:40:29;23.50;63.70
66708;DHT22;53622;0.000;0.000;2023-08-06T03:42:59;23.50;62.90
66708;DHT22;53622;0.000;0.000;2023-08-06T03:45:30;23.50;63.00
66708;DHT22;53622;0.000;0.000;2023-08-06T03:48:00;23.50;63.00
66708;DHT22;53622;0.000;0.000;2023-08-06T03:50:29;23.50;63.10
66708;DHT22;53622;0.000;0.000;2023-08-06T03:52:58;23.50;63.00
66708;DHT22;53622;0.000;0.000;2023-08-06T03:55:28;23.50;63.00
66708;DHT22;53622;0.000;0.000;2023-08-06T03:57:58;23.50;63.00
66708;DHT22;53622;0.000;0.000;2023-08-06T04:00:27;23.50;62.90
66708;DHT22;53622;0.000;0.000;2023-08-06T04:02:58;23.50;62.90
66708;DHT22;53622;0.000;0.000;2023-08-06T04:05:31;23.50;62.90
66708;DHT22;53622;0.000;0.000;2023-08-06T04:08:01;23.50;62.90
66708;DHT22;53622;0.000;0.000;2023-08-06T04:10:31;23.50;62.90
66708;DHT22;53622;0.000;0.000;2023-08-06T04:13:01;23.50;62.90
66708;DHT22;53622;0.000;0.000;2023-08-06T04:15:30;23.50;62.80
66708;DHT22;53622;0.000;0.000;2023-08-06T04:18:03;23.50;62.80
66708;DHT22;53622;0.000;0.000;2023-08-06T04:20:33;23.50;62.80
66708;DHT22;53622;0.000;0.000;2023-08-06T04:23:06;23.50;62.80
66708;DHT22;53622;0.000;0.000;2023-08-06T04:25:35;23.40;62.70
66708;DHT22;53622;0.000;0.000;2023-08-06T04:28:06;23.50;62.80
66708;DHT22;53622;0.000;0.000;2023-08-06T04:30:36;23.50;62.80
66708;DHT22;53622;0.000;0.000;2023-08-06T04:33:09;23.40;62.80
66708;DHT22;53622;0.000;0.000;2023-08-06T04:35:38;23.50;62.90
66708;DHT22;53622;0.000;0.000;2023-08-06T04:38:07;23.40;62.80
66708;DHT22;53622;0.000;0.000;2023-08-06T04:40:37;23.40;63.60
66708;DHT22;53622;0.000;0.000;2023-08-06T04:43:07;23.50;62.90
66708;DHT22;53622;0.000;0.000;2023-08-06T04:45:36;23.50;62.90
66708;DHT22;53622;0.000;0.000;2023-08-06T04:48:06;23.40;62.90
66708;DHT22;53622;0.000;0.000;2023-08-06T04:50:36;23.50;62.90
66708;DHT22;53622;0.000;0.000;2023-08-06T04:53:06;23.40;62.80
66708;DHT22;53622;0.000;0.000;2023-08-06T04:55:35;23.50;62.90
66708;DHT22;53622;0.000;0.000;2023-08-06T04:58:04;23.40;62.80
66708;DHT22;53622;0.000;0.000;2023-08-06T05:00:34;23.40;62.80
66708;DHT22;53622;0.000;0.000;2023-08-06T05:03:03;23.40;62.80
66708;DHT22;53622;0.000;0.000;2023-08-06T05:05:33;23.40;62.80
66708;DHT22;53622;0.000;0.000;2023-08-06T05:08:04;23.40;62.90
66708;DHT22;53622;0.000;0.000;2023-08-06T05:10:33;23.40;62.90
66708;DHT22;53622;0.000;0.000;2023-08-06T05:13:02;23.50;63.00
66708;DHT22;53622;0.000;0.000;2023-08-06T05:15:32;23.40;63.20
66708;DHT22;53622;0.000;0.000;2023-08-06T05:18:01;23.50;63.00
66708;DHT22;53622;0.000;0.000;2023-08-06T05:20:30;23.40;62.90
66708;DHT22;53622;0.000;0.000;2023-08-06T05:23:00;23.40;62.80
66708;DHT22;53622;0.000;0.000;2023-08-06T05:25:31;23.50;63.00
66708;DHT22;53622;0.000;0.000;2023-08-06T05:28:00;23.40;62.90
66708;DHT22;53622;0.000;0.000;2023-08-06T05:30:29;23.40;62.80
66708;DHT22;53622;0.000;0.000;2023-08-06T05:32:59;23.40;62.90
66708;DHT22;53622;0.000;0.000;2023-08-06T05:35:28;23.40;62.90
66708;DHT22;53622;0.000;0.000;2023-08-06T05:37:57;23.40;62.80
66708;DHT22;53622;0.000;0.000;2023-08-06T05:40:27;23.40;62.80
66708;DHT22;53622;0.000;0.000;2023-08-06T05:42:57;23.50;62.90
66708;DHT22;53622;0.000;0.000;2023-08-06T05:45:27;23.50;62.70
66708;DHT22;53622;0.000;0.000;2023-08-06T05:47:56;23.50;62.30
66708;DHT22;53622;0.000;0.000;2023-08-06T05:50:26;23.50;62.40
66708;DHT22;53622;0.000;0.000;2023-08-06T05:52:56;23.60;62.40
66708;DHT22;53622;0.000;0.000;2023-08-06T05:55:28;23.60;62.30
66708;DHT22;53622;0.000;0.000;2023-08-06T05:58:00;23.60;62.40
66708;DHT22;53622;0.000;0.000;2023-08-06T06:00:29;23.60;62.10
66708;DHT22;53622;0.000;0.000;2023-08-06T06:02:59;23.60;62.00
66708;DHT22;53622;0.000;0.000;2023-08-06T06:05:28;23.50;61.90
66708;DHT22;53622;0.000;0.000;2023-08-06T06:07:58;23.50;62.00
66708;DHT22;53622;0.000;0.000;2023-08-06T06:10:27;23.50;61.90
66708;DHT22;53622;0.000;0.000;2023-08-06T06:12:56;23.50;62.00
66708;DHT22;53622;0.000;0.000;2023-08-06T06:15:27;23.50;62.00
66708;DHT22;53622;0.000;0.000;2023-08-06T06:17:57;23.50;62.30
66708;DHT22;53622;0.000;0.000;2023-08-06T06:20:27;23.50;62.30
66708;DHT22;53622;0.000;0.000;2023-08-06T06:22:56;23.50;62.30
66708;DHT22;53622;0.000;0.000;2023-08-06T06:25:25;23.50;62.30
66708;DHT22;53622;0.000;0.000;2023-08-06T06:27:55;23.50;62.00
66708;DHT22;53622;0.000;0.000;2023-08-06T06:30:24;23.60;62.00
66708;DHT22;53622;0.000;0.000;2023-08-06T06:32:55;23.50;62.10
66708;DHT22;53622;0.000;0.000;2023-08-06T06:35:25;23.60;62.00
66708;DHT22;53622;0.000;0.000;2023-08-06T06:37:55;23.60;61.80
66708;DHT22;53622;0.000;0.000;2023-08-06T06:40:25;23.60;61.40
66708;DHT22;53622;0.000;0.000;2023-08-06T06:42:55;23.60;61.20
66708;DHT22;53622;0.000;0.000;2023-08-06T06:45:25;23.50;61.10
66708;DHT22;53622;0.000;0.000;2023-08-06T06:47:56;23.50;61.00
66708;DHT22;53622;0.000;0.000;2023-08-06T06:50:26;23.50;61.00
66708;DHT22;53622;0.000;0.000;2023-08-06T06:52:55;23.50;60.90
66708;DHT22;53622;0.000;0.000;2023-08-06T06:55:24;23.50;60.70
66708;DHT22;53622;0.000;0.000;2023-08-06T06:57:54;23.60;60.80
66708;DHT22;53622;0.000;0.000;2023-08-06T07:00:23;23.60;60.80
66708;DHT22;53622;0.000;0.000;2023-08-06T07:02:53;23.60;61.00
66708;DHT22;53622;0.000;0.000;2023-08-06T07:05:25;23.70;60.90
66708;DHT22;53622;0.000;0.000;2023-08-06T07:07:55;23.70;61.20
66708;DHT22;53622;0.000;0.000;2023-08-06T07:10:25;23.70;60.90
66708;DHT22;53622;0.000;0.000;2023-08-06T07:12:55;23.70;62.00
66708;DHT22;53622;0.000;0.000;2023-08-06T07:15:25;23.70;61.40
66708;DHT22;53622;0.000;0.000;2023-08-06T07:17:54;23.70;61.70
66708;DHT22;53622;0.000;0.000;2023-08-06T07:20:26;23.80;61.90
66708;DHT22;53622;0.000;0.000;2023-08-06T07:22:57;23.80;62.10
66708;DHT22;53622;0.000;0.000;2023-08-06T07:25:27;23.80;62.30
66708;DHT22;53622;0.000;0.000;2023-08-06T07:27:56;23.80;62.30
66708;DHT22;53622;0.000;0.000;2023-08-06T07:30:26;23.80;62.30
66708;DHT22;53622;0.000;0.000;2023-08-06T07:32:55;23.90;62.10
66708;DHT22;53622;0.000;0.000;2023-08-06T07:35:28;23.90;62.00
66708;DHT22;53622;0.000;0.000;2023-08-06T07:37:58;23.90;61.90
66708;DHT22;53622;0.000;0.000;2023-08-06T07:40:29;23.90;62.00
66708;DHT22;53622;0.000;0.000;2023-08-06T07:42:58;23.90;62.10
66708;DHT22;53622;0.000;0.000;2023-08-06T07:45:28;23.80;62.00
66708;DHT22;53622;0.000;0.000;2023-08-06T07:48:01;23.80;62.00
66708;DHT22;53622;0.000;0.000;2023-08-06T07:50:33;23.80;62.00
66708;DHT22;53622;0.000;0.000;2023-08-06T07:53:03;23.80;62.10
66708;DHT22;53622;0.000;0.000;2023-08-06T07:55:32;23.80;62.10
66708;DHT22;53622;0.000;0.000;2023-08-06T07:58:02;23.80;62.00
66708;DHT22;53622;0.000;0.000;2023-08-06T08:00:32;23.80;61.70
66708;DHT22;53622;0.000;0.000;2023-08-06T08:03:01;23.80;61.30
66708;DHT22;53622;0.000;0.000;2023-08-06T08:05:33;23.80;61.30
66708;DHT22;53622;0.000;0.000;2023-08-06T08:08:02;23.80;61.60
66708;DHT22;53622;0.000;0.000;2023-08-06T08:10:32;23.80;61.50
66708;DHT22;53622;0.000;0.000;2023-08-06T08:13:02;23.80;61.30
66708;DHT22;53622;0.000;0.000;2023-08-06T08:15:32;23.90;61.00
66708;DHT22;53622;0.000;0.000;2023-08-06T08:18:01;23.90;61.10
66708;DHT22;53622;0.000;0.000;2023-08-06T08:20:32;23.90;61.20
66708;DHT22;53622;0.000;0.000;2023-08-06T08:23:03;23.90;61.10
66708;DHT22;53622;0.000;0.000;2023-08-06T08:25:32;23.90;61.00
66708;DHT22;53622;0.000;0.000;2023-08-06T08:28:02;24.00;61.00
66708;DHT22;53622;0.000;0.000;2023-08-06T08:30:31;24.00;60.70
66708;DHT22;53622;0.000;0.000;2023-08-06T08:33:00;24.00;60.50
66708;DHT22;53622;0.000;0.000;2023-08-06T08:35:30;24.00;60.40
66708;DHT22;53622;0.000;0.000;2023-08-06T08:38:01;24.10;60.20
66708;DHT22;53622;0.000;0.000;2023-08-06T08:40:33;24.10;60.10
66708;DHT22;53622;0.000;0.000;2023-08-06T08:43:05;24.10;60.00
66708;DHT22;53622;0.000;0.000;2023-08-06T08:45:39;24.10;59.90
66708;DHT22;53622;0.000;0.000;2023-08-06T08:48:10;24.10;59.70
66708;DHT22;53622;0.000;0.000;2023-08-06T08:50:40;24.10;59.40
66708;DHT22;53622;0.000;0.000;2023-08-06T08:53:13;24.00;56.60
66708;DHT22;53622;0.000;0.000;2023-08-06T08:55:43;23.90;55.80
66708;DHT22;53622;0.000;0.000;2023-08-06T08:58:13;23.70;55.00
66708;DHT22;53622;0.000;0.000;2023-08-06T09:00:43;23.60;54.80
66708;DHT22;53622;0.000;0.000;2023-08-06T09:03:14;23.50;54.20
66708;DHT22;53622;0.000;0.000;2023-08-06T09:05:45;23.30;54.00
66708;DHT22;53622;0.000;0.000;2023-08-06T09:08:27;23.30;54.00
66708;DHT22;53622;0.000;0.000;2023-08-06T09:11:01;23.20;53.60
66708;DHT22;53622;0.000;0.000;2023-08-06T09:13:31;23.20;53.80
66708;DHT22;53622;0.000;0.000;2023-08-06T09:16:00;23.10;54.00
66708;DHT22;53622;0.000;0.000;2023-08-06T09:18:30;23.10;53.80
66708;DHT22;53622;0.000;0.000;2023-08-06T09:20:59;23.00;53.80
66708;DHT22;53622;0.000;0.000;2023-08-06T09:23:31;23.00;53.80
66708;DHT22;53622;0.000;0.000;2023-08-06T09:26:01;23.00;53.50
66708;DHT22;53622;0.000;0.000;2023-08-06T09:28:37;23.00;53.70
66708;DHT22;53622;0.000;0.000;2023-08-06T09:31:09;23.00;53.80
66708;DHT22;53622;0.000;0.000;2023-08-06T09:33:39;22.90;53.50
66708;DHT22;53622;0.000;0.000;2023-08-06T09:36:09;22.90;53.30
66708;DHT22;53622;0.000;0.000;2023-08-06T09:38:40;22.80;53.00
66708;DHT22;53622;0.000;0.000;2023-08-06T09:41:10;22.80;53.50
66708;DHT22;53622;0.000;0.000;2023-08-06T09:43:42;22.70;53.10
66708;DHT22;53622;0.000;0.000;2023-08-06T09:46:12;22.70;52.90
66708;DHT22;53622;0.000;0.000;2023-08-06T09:48:45;22.60;52.80
66708;DHT22;53622;0.000;0.000;2023-08-06T09:51:15;22.70;53.00
66708;DHT22;53622;0.000;0.000;2023-08-06T09:53:47;22.70;53.30
66708;DHT22;53622;0.000;0.000;2023-08-06T09:56:18;22.70;52.80
66708;DHT22;53622;0.000;0.000;2023-08-06T09:58:49;22.70;52.90
66708;DHT22;53622;0.000;0.000;2023-08-06T10:01:19;22.70;53.00
66708;DHT22;53622;0.000;0.000;2023-08-06T10:03:50;22.70;52.70
66708;DHT22;53622;0.000;0.000;2023-08-06T10:06:22;22.80;53.30
66708;DHT22;53622;0.000;0.000;2023-08-06T10:08:53;22.90;53.90
66708;DHT22;53622;0.000;0.000;2023-08-06T10:11:24;22.90;53.80
66708;DHT22;53622;0.000;0.000;2023-08-06T10:13:58;23.00;53.70
66708;DHT22;53622;0.000;0.000;2023-08-06T10:16:30;23.10;54.10
66708;DHT22;53622;0.000;0.000;2023-08-06T10:19:01;23.20;54.00
66708;DHT22;53622;0.000;0.000;2023-08-06T10:21:32;23.30;54.40
66708;DHT22;53622;0.000;0.000;2023-08-06T10:24:07;23.40;54.20
66708;DHT22;53622;0.000;0.000;2023-08-06T10:26:38;23.40;54.20
66708;DHT22;53622;0.000;0.000;2023-08-06T10:29:35;23.40;54.90
66708;DHT22;53622;0.000;0.000;2023-08-06T10:32:04;23.40;55.40
66708;DHT22;53622;0.000;0.000;2023-08-06T10:34:56;23.30;55.50
66708;DHT22;53622;0.000;0.000;2023-08-06T10:37:35;23.40;55.80
66708;DHT22;53622;0.000;0.000;2023-08-06T10:40:08;23.40;56.00
66708;DHT22;53622;0.000;0.000;2023-08-06T10:42:40;23.40;56.20
66708;DHT22;53622;0.000;0.000;2023-08-06T10:45:12;23.40;56.40
66708;DHT22;53622;0.000;0.000;2023-08-06T10:47:43;23.40;56.50
66708;DHT22;53622;0.000;0.000;2023-08-06T10:50:14;23.40;56.60
66708;DHT22;53622;0.000;0.000;2023-08-06T10:52:45;23.40;56.70
66708;DHT22;53622;0.000;0.000;2023-08-06T10:55:24;23.40;56.80
66708;DHT22;53622;0.000;0.000;2023-08-06T10:57:54;23.50;56.90
66708;DHT22;53622;0.000;0.000;2023-08-06T11:00:24;23.50;56.90
66708;DHT22;53622;0.000;0.000;2023-08-06T11:02:54;23.50;57.00
66708;DHT22;53622;0.000;0.000;2023-08-06T11:05:24;23.60;57.00
66708;DHT22;53622;0.000;0.000;2023-08-06T11:07:53;23.60;57.00
66708;DHT22;53622;0.000;0.000;2023-08-06T11:10:24;23.60;57.00
66708;DHT22;53622;0.000;0.000;2023-08-06T11:12:54;23.60;57.10
66708;DHT22;53622;0.000;0.000;2023-08-06T11:15:23;23.60;57.20
66708;DHT22;53622;0.000;0.000;2023-08-06T11:17:53;23.70;57.20
66708;DHT22;53622;0.000;0.000;2023-08-06T11:20:23;23.70;57.20
66708;DHT22;53622;0.000;0.000;2023-08-06T11:22:53;23.70;57.20
66708;DHT22;53622;0.000;0.000;2023-08-06T11:25:26;23.70;57.30
66708;DHT22;53622;0.000;0.000;2023-08-06T11:27:57;23.80;57.30
66708;DHT22;53622;0.000;0.000;2023-08-06T11:30:27;23.80;57.20
66708;DHT22;53622;0.000;0.000;2023-08-06T11:32:57;23.80;57.30
66708;DHT22;53622;0.000;0.000;2023-08-06T11:35:26;23.80;57.20
66708;DHT22;53622;0.000;0.000;2023-08-06T11:37:56;23.80;57.30
66708;DHT22;53622;0.000;0.000;2023-08-06T11:40:27;23.80;57.40
66708;DHT22;53622;0.000;0.000;2023-08-06T11:42:56;23.80;57.50
66708;DHT22;53622;0.000;0.000;2023-08-06T11:45:27;23.80;57.60
66708;DHT22;53622;0.000;0.000;2023-08-06T11:47:57;23.80;57.60
66708;DHT22;53622;0.000;0.000;2023-08-06T11:50:27;23.80;57.60
66708;DHT22;53622;0.000;0.000;2023-08-06T11:52:57;23.80;57.70
66708;DHT22;53622;0.000;0.000;2023-08-06T11:55:30;23.80;57.60
66708;DHT22;53622;0.000;0.000;2023-08-06T11:58:03;23.80;57.60
66708;DHT22;53622;0.000;0.000;2023-08-06T12:00:33;23.80;57.80
66708;DHT22;53622;0.000;0.000;2023-08-06T12:03:05;23.80;57.80
66708;DHT22;53622;0.000;0.000;2023-08-06T12:05:34;23.80;57.80
66708;DHT22;53622;0.000;0.000;2023-08-06T12:08:06;23.80;57.80
66708;DHT22;53622;0.000;0.000;2023-08-06T12:10:40;23.80;57.80
66708;DHT22;53622;0.000;0.000;2023-08-06T12:13:10;23.80;57.80
66708;DHT22;53622;0.000;0.000;2023-08-06T12:15:41;23.80;57.90
66708;DHT22;53622;0.000;0.000;2023-08-06T12:18:11;23.80;57.80
66708;DHT22;53622;0.000;0.000;2023-08-06T12:20:40;23.80;57.90
66708;DHT22;53622;0.000;0.000;2023-08-06T12:23:10;23.80;57.80
66708;DHT22;53622;0.000;0.000;2023-08-06T12:25:44;23.90;57.90
66708;DHT22;53622;0.000;0.000;2023-08-06T12:28:14;23.90;58.00
66708;DHT22;53622;0.000;0.000;2023-08-06T12:30:43;23.90;57.90
66708;DHT22;53622;0.000;0.000;2023-08-06T12:33:13;23.90;57.80
66708;DHT22;53622;0.000;0.000;2023-08-06T12:35:43;23.90;57.80
66708;DHT22;53622;0.000;0.000;2023-08-06T12:38:12;23.90;57.90
66708;DHT22;53622;0.000;0.000;2023-08-06T12:40:44;23.90;57.90
66708;DHT22;53622;0.000;0.000;2023-08-06T12:43:13;23.90;57.90
66708;DHT22;53622;0.000;0.000;2023-08-06T12:45:43;23.90;58.00
66708;DHT22;53622;0.000;0.000;2023-08-06T12:48:13;24.00;58.00
66708;DHT22;53622;0.000;0.000;2023-08-06T12:50:43;24.00;58.00
66708;DHT22;53622;0.000;0.000;2023-08-06T12:53:12;24.00;58.00
66708;DHT22;53622;0.000;0.000;2023-08-06T12:55:43;24.00;58.00
66708;DHT22;53622;0.000;0.000;2023-08-06T12:58:13;24.00;57.90
66708;DHT22;53622;0.000;0.000;2023-08-06T13:00:42;24.00;58.70
66708;DHT22;53622;0.000;0.000;2023-08-06T13:03:12;24.00;58.00
66708;DHT22;53622;0.000;0.000;2023-08-06T13:05:41;24.00;58.00
66708;DHT22;53622;0.000;0.000;2023-08-06T13:08:11;24.10;57.90
66708;DHT22;53622;0.000;0.000;2023-08-06T13:10:41;24.10;57.80
66708;DHT22;53622;0.000;0.000;2023-08-06T13:13:12;24.10;57.80
66708;DHT22;53622;0.000;0.000;2023-08-06T13:15:41;24.10;57.80
66708;DHT22;53622;0.000;0.000;2023-08-06T13:18:10;24.10;57.80
66708;DHT22;53622;0.000;0.000;2023-08-06T13:20:39;24.10;57.70
66708;DHT22;53622;0.000;0.000;2023-08-06T13:23:09;24.10;57.80
66708;DHT22;53622;0.000;0.000;2023-08-06T13:25:38;24.20;57.80
66708;DHT22;53622;0.000;0.000;2023-08-06T13:28:08;24.20;57.70
66708;DHT22;53622;0.000;0.000;2023-08-06T13:30:39;24.20;57.60
66708;DHT22;53622;0.000;0.000;2023-08-06T13:33:10;24.20;57.60
66708;DHT22;53622;0.000;0.000;2023-08-06T13:35:40;24.20;57.70
66708;DHT22;53622;0.000;0.000;2023-08-06T13:38:09;24.20;57.80
66708;DHT22;53622;0.000;0.000;2023-08-06T13:40:38;24.30;57.80
66708;DHT22;53622;0.000;0.000;2023-08-06T13:43:08;24.30;57.80
66708;DHT22;53622;0.000;0.000;2023-08-06T13:45:38;24.30;57.80
66708;DHT22;53622;0.000;0.000;2023-08-06T13:48:08;24.30;57.80
66708;DHT22;53622;0.000;0.000;2023-08-06T13:50:38;24.30;57.80
66708;DHT22;53622;0.000;0.000;2023-08-06T13:53:07;24.30;57.90
66708;DHT22;53622;0.000;0.000;2023-08-06T13:55:37;24.30;57.80
66708;DHT22;53622;0.000;0.000;2023-08-06T13:58:06;24.30;57.80
66708;DHT22;53622;0.000;0.000;2023-08-06T14:00:36;24.30;57.70
66708;DHT22;53622;0.000;0.000;2023-08-06T14:03:07;24.30;57.80
66708;DHT22;53622;0.000;0.000;2023-08-06T14:05:37;24.40;57.80
66708;DHT22;53622;0.000;0.000;2023-08-06T14:08:06;24.40;57.70
66708;DHT22;53622;0.000;0.000;2023-08-06T14:10:35;24.40;57.80
66708;DHT22;53622;0.000;0.000;2023-08-06T14:13:05;24.40;57.70
66708;DHT22;53622;0.000;0.000;2023-08-06T14:15:38;24.40;57.80
66708;DHT22;53622;0.000;0.000;2023-08-06T14:18:09;24.40;57.60
66708;DHT22;53622;0.000;0.000;2023-08-06T14:20:39;24.40;57.70
66708;DHT22;53622;0.000;0.000;2023-08-06T14:23:08;24.40;57.90
66708;DHT22;53622;0.000;0.000;2023-08-06T14:25:38;24.40;57.70
66708;DHT22;53622;0.000;0.000;2023-08-06T14:28:07;24.40;57.60
66708;DHT22;53622;0.000;0.000;2023-08-06T14:30:37;24.40;57.50
66708;DHT22;53622;0.000;0.000;2023-08-06T14:33:06;24.50;57.60
66708;DHT22;53622;0.000;0.000;2023-08-06T14:35:54;24.50;57.50
66708;DHT22;53622;0.000;0.000;2023-08-06T14:38:23;24.50;58.10
66708;DHT22;53622;0.000;0.000;2023-08-06T14:40:53;24.50;57.60
66708;DHT22;53622;0.000;0.000;2023-08-06T14:43:22;24.50;57.40
66708;DHT22;53622;0.000;0.000;2023-08-06T14:45:51;24.40;57.60
66708;DHT22;53622;0.000;0.000;2023-08-06T14:48:20;24.40;57.40
66708;DHT22;53622;0.000;0.000;2023-08-06T14:50:50;24.40;57.40
66708;DHT22;53622;0.000;0.000;2023-08-06T14:53:21;24.40;57.50
66708;DHT22;53622;0.000;0.000;2023-08-06T14:55:50;24.40;57.50
66708;DHT22;53622;0.000;0.000;2023-08-06T14:58:20;24.40;57.40
66708;DHT22;53622;0.000;0.000;2023-08-06T15:00:49;24.40;57.30
66708;DHT22;53622;0.000;0.000;2023-08-06T15:03:18;24.40;57.30
66708;DHT22;53622;0.000;0.000;2023-08-06T15:05:48;24.40;57.20
66708;DHT22;53622;0.000;0.000;2023-08-06T15:08:18;24.40;57.20
66708;DHT22;53622;0.000;0.000;2023-08-06T15:10:51;24.40;57.20
66708;DHT22;53622;0.000;0.000;2023-08-06T15:13:21;24.50;57.30
66708;DHT22;53622;0.000;0.000;2023-08-06T15:15:50;24.50;57.30
66708;DHT22;53622;0.000;0.000;2023-08-06T15:18:20;24.50;57.30
66708;DHT22;53622;0.000;0.000;2023-08-06T15:20:49;24.50;57.30
66708;DHT22;53622;0.000;0.000;2023-08-06T15:23:18;24.50;57.40
66708;DHT22;53622;0.000;0.000;2023-08-06T15:25:47;24.50;57.40
66708;DHT22;53622;0.000;0.000;2023-08-06T15:28:18;24.50;57.40
66708;DHT22;53622;0.000;0.000;2023-08-06T15:30:49;24.50;57.30
66708;DHT22;53622;0.000;0.000;2023-08-06T15:33:20;24.50;57.30
66708;DHT22;53622;0.000;0.000;2023-08-06T15:35:50;24.50;57.40
66708;DHT22;53622;0.000;0.000;2023-08-06T15:38:19;24.60;57.30
66708;DHT22;53622;0.000;0.000;2023-08-06T15:40:49;24.60;57.30
66708;DHT22;53622;0.000;0.000;2023-08-06T15:43:20;24.60;57.30
66708;DHT22;53622;0.000;0.000;2023-08-06T15:45:50;24.60;57.30
66708;DHT22;53622;0.000;0.000;2023-08-06T15:48:21;24.60;57.30
66708;DHT22;53622;0.000;0.000;2023-08-06T15:50:56;24.60;57.30
66708;DHT22;53622;0.000;0.000;2023-08-06T15:53:26;24.60;57.30
66708;DHT22;53622;0.000;0.000;2023-08-06T15:55:56;24.60;57.30
66708;DHT22;53622;0.000;0.000;2023-08-06T15:58:27;24.60;57.30
66708;DHT22;53622;0.000;0.000;2023-08-06T16:00:56;24.70;57.30
66708;DHT22;53622;0.000;0.000;2023-08-06T16:03:26;24.70;57.20
66708;DHT22;53622;0.000;0.000;2023-08-06T16:05:56;24.70;57.20